Time;durP1;ratioP1;P1;durP2;ratioP2;P2;SDS_P1;SDS_P2;PMS_P1;PMS_P2;Temp;Humidity;BMP_temperature;BMP_pressure;BME280_temperature;BME280_humidity;BME280_pressure;Samples;Min_cycle;Max_cycle;Signal;HPM_P1;HPM_P2
2023/04/26 00:00:45;;;;;;;20.25;3.63;;;;;;;;;;5093541;28;20480;-52
2023/04/26 00:03:13;;;;;;;9.43;2.42;;;3.80;99.90;;;;;;5094259;28;20142;-52
2023/04/26 00:05:40;;;;;;;7.38;2.50;;;3.80;99.90;;;;;;5093526;27;20040;-52
2023/04/26 00:08:06;;;;;;;13.35;2.60;;;;;;;;;;5095427;27;20051;-48
2023/04/26 00:10:32;;;;;;;10.38;3.42;;;;;;;;;;5094418;27;20043;-51
2023/04/26 00:12:58;;;;;;;8.05;2.30;;;;;;;;;;5094310;27;20180;-50
2023/04/26 00:15:25;;;;;;;17.65;2.60;;;;;;;;;;5075170;28;20591;-51
2023/04/26 00:17:51;;;;;;;10.95;2.60;;;;;;;;;;5094973;27;20055;-52
2023/04/26 00:20:17;;;;;;;11.30;2.88;;;3.20;99.90;;;;;;5094933;27;20085;-51
2023/04/26 00:22:43;;;;;;;12.90;3.20;;;;;;;;;;5094240;27;20091;-55
2023/04/26 00:25:10;;;;;;;12.80;3.05;;;;;;;;;;5093212;27;20046;-49
2023/04/26 00:27:36;;;;;;;9.25;2.40;;;;;;;;;;5095525;27;20047;-53
2023/04/26 00:30:02;;;;;;;12.52;3.90;;;3.00;99.90;;;;;;5093782;27;20054;-50
2023/04/26 00:32:29;;;;;;;11.10;2.47;;;2.90;99.90;;;;;;5094538;27;20123;-52
2023/04/26 00:34:55;;;;;;;10.13;2.60;;;3.00;99.90;;;;;;5094955;27;20046;-52
2023/04/26 00:37:22;;;;;;;8.93;2.83;;;;;;;;;;5076567;28;20051;-51
2023/04/26 00:39:48;;;;;;;11.07;2.30;;;;;;;;;;5093456;27;20332;-52
2023/04/26 00:42:14;;;;;;;10.43;2.38;;;;;;;;;;5094822;27;20041;-48
2023/04/26 00:44:40;;;;;;;10.48;2.58;;;;;;;;;;5093617;27;20040;-46
2023/04/26 00:47:06;;;;;;;10.27;2.90;;;;;;;;;;5095106;27;20040;-48
2023/04/26 00:49:33;;;;;;;15.38;3.22;;;;;;;;;;5094377;27;20051;-50
2023/04/26 00:51:59;;;;;;;10.18;2.45;;;;;;;;;;5093795;27;20100;-50
2023/04/26 00:54:26;;;;;;;9.50;2.63;;;;;;;;;;5093575;27;20069;-50
2023/04/26 00:56:52;;;;;;;10.63;2.50;;;;;;;;;;5094835;28;20130;-51
2023/04/26 00:59:21;;;;;;;13.45;2.70;;;2.60;99.90;;;;;;5093765;27;20098;-48
2023/04/26 01:01:48;;;;;;;9.38;2.88;;;;;;;;;;5093852;27;20047;-48
2023/04/26 01:04:14;;;;;;;12.40;2.90;;;;;;;;;;5092944;28;20101;-49
2023/04/26 01:06:40;;;;;;;16.65;3.78;;;;;;;;;;5095153;27;20125;-49
2023/04/26 01:09:08;;;;;;;16.25;2.90;;;;;;;;;;5094103;27;20420;-48
2023/04/26 01:11:35;;;;;;;10.93;2.25;;;2.60;99.90;;;;;;5093058;27;20132;-47
2023/04/26 01:14:02;;;;;;;8.45;2.63;;;;;;;;;;5093534;27;20615;-49
2023/04/26 01:16:29;;;;;;;11.05;2.53;;;;;;;;;;5093085;27;20032;-48
2023/04/26 01:18:55;;;;;;;12.63;2.92;;;;;;;;;;5092873;27;20096;-50
2023/04/26 01:21:23;;;;;;;11.88;2.90;;;2.90;99.90;;;;;;5094752;27;20054;-50
2023/04/26 01:23:50;;;;;;;9.52;1.90;;;3.00;99.90;;;;;;5092802;27;20044;-48
2023/04/26 01:26:16;;;;;;;10.57;2.53;;;;;;;;;;5092496;27;20051;-46
2023/04/26 01:28:42;;;;;;;8.82;2.67;;;;;;;;;;5092696;27;20116;-51
2023/04/26 01:31:09;;;;;;;7.68;2.60;;;3.20;99.90;;;;;;5093677;27;20943;-49
2023/04/26 01:33:35;;;;;;;10.60;3.70;;;3.30;99.90;;;;;;5074150;28;20560;-48
2023/04/26 01:36:01;;;;;;;11.32;2.90;;;;;;;;;;5094043;27;20047;-50
2023/04/26 01:38:27;;;;;;;7.80;2.63;;;;;;;;;;5092064;27;20479;-48
2023/04/26 01:40:53;;;;;;;9.95;3.13;;;;;;;;;;5075343;28;20047;-51
2023/04/26 01:43:21;;;;;;;8.93;2.22;;;;;;;;;;5092029;27;20047;-48
2023/04/26 01:45:47;;;;;;;7.60;2.40;;;;;;;;;;5093282;27;20433;-47
2023/04/26 01:48:14;;;;;;;8.55;3.55;;;;;;;;;;5092906;28;20047;-49
2023/04/26 01:50:40;;;;;;;6.57;2.20;;;;;;;;;;5093052;27;20057;-51
2023/04/26 01:53:06;;;;;;;13.65;3.03;;;;;;;;;;5092413;27;20036;-49
2023/04/26 01:55:33;;;;;;;8.73;2.25;;;3.30;99.90;;;;;;5091540;28;20074;-48
2023/04/26 01:57:59;;;;;;;13.00;3.03;;;;;;;;;;5092066;28;20403;-47
2023/04/26 02:00:27;;;;;;;6.78;2.65;;;3.10;99.90;;;;;;5094247;27;20059;-48
2023/04/26 02:02:56;;;;;;;9.35;2.20;;;3.20;99.90;;;;;;5093118;28;20407;-48
2023/04/26 02:05:23;;;;;;;11.43;2.22;;;;;;;;;;5095096;28;20054;-49
2023/04/26 02:07:49;;;;;;;9.95;2.35;;;;;;;;;;5093343;28;20385;-47
2023/04/26 02:10:15;;;;;;;8.05;2.00;;;;;;;;;;5091639;28;20053;-52
2023/04/26 02:12:41;;;;;;;9.82;2.35;;;;;;;;;;5074081;28;20130;-52
2023/04/26 02:15:08;;;;;;;9.15;2.00;;;3.20;99.90;;;;;;5092689;28;20154;-52
2023/04/26 02:17:36;;;;;;;9.85;2.38;;;;;;;;;;5072867;28;20040;-48
2023/04/26 02:20:02;;;;;;;8.93;1.98;;;;;;;;;;5092013;28;20058;-52
2023/04/26 02:22:30;;;;;;;5.80;1.80;;;;;;;;;;5092154;28;20079;-53
2023/04/26 02:24:56;;;;;;;8.10;1.90;;;;;;;;;;5093038;28;20611;-50
2023/04/26 02:27:22;;;;;;;6.47;1.77;;;;;;;;;;5091770;28;20397;-52
2023/04/26 02:29:48;;;;;;;8.95;2.10;;;;;;;;;;5093600;28;20069;-50
2023/04/26 02:32:15;;;;;;;6.70;2.15;;;;;;;;;;5072703;28;20059;-52
2023/04/26 02:34:41;;;;;;;15.05;1.98;;;;;;;;;;5075036;28;20051;-51
2023/04/26 02:37:07;;;;;;;14.13;2.45;;;;;;;;;;5093087;28;20149;-51
2023/04/26 02:39:34;;;;;;;10.50;2.25;;;;;;;;;;5091803;28;20086;-52
2023/04/26 02:42:00;;;;;;;11.20;2.22;;;;;;;;;;5091304;28;20047;-48
2023/04/26 02:44:29;;;;;;;7.60;1.80;;;3.10;99.90;;;;;;5092399;28;20039;-52
2023/04/26 02:46:56;;;;;;;8.48;2.55;;;;;;;;;;5092619;28;20112;-51
2023/04/26 02:49:22;;;;;;;6.85;2.00;;;;;;;;;;5091515;28;20047;-52
2023/04/26 02:51:48;;;;;;;8.43;2.15;;;;;;;;;;5091038;28;20051;-50
2023/04/26 02:54:15;;;;;;;10.30;2.00;;;;;;;;;;5091207;28;20044;-51
2023/04/26 02:56:41;;;;;;;6.47;1.75;;;;;;;;;;5092437;28;20441;-50
2023/04/26 02:59:07;;;;;;;6.88;1.77;;;;;;;;;;5091318;28;20040;-52
2023/04/26 03:01:33;;;;;;;7.55;2.10;;;;;;;;;;5092706;27;20460;-49
2023/04/26 03:03:59;;;;;;;7.03;1.90;;;;;;;;;;5094974;27;20047;-50
2023/04/26 03:06:26;;;;;;;4.25;2.15;;;;;;;;;;5097308;27;20142;-52
2023/04/26 03:08:53;;;;;;;6.88;1.65;;;;;;;;;;5095063;27;20410;-48
2023/04/26 03:11:19;;;;;;;8.38;1.73;;;;;;;;;;5095406;27;20155;-52
2023/04/26 03:13:45;;;;;;;8.85;1.92;;;;;;;;;;5096529;27;20051;-52
2023/04/26 03:16:11;;;;;;;7.38;1.63;;;3.60;99.90;;;;;;5096301;27;20120;-51
2023/04/26 03:18:37;;;;;;;8.45;1.90;;;;;;;;;;5095193;27;20047;-49
2023/04/26 03:21:03;;;;;;;7.57;2.10;;;;;;;;;;5095579;27;20134;-52
2023/04/26 03:23:29;;;;;;;7.32;2.00;;;;;;;;;;5096142;27;20650;-48
2023/04/26 03:25:56;;;;;;;7.55;2.33;;;;;;;;;;5096595;27;20039;-52
2023/04/26 03:28:22;;;;;;;6.25;1.85;;;;;;;;;;5094675;27;20074;-48
2023/04/26 03:30:49;;;;;;;8.35;1.80;;;;;;;;;;5095208;28;20047;-49
2023/04/26 03:33:15;;;;;;;6.35;2.10;;;;;;;;;;5094079;27;20036;-50
2023/04/26 03:35:42;;;;;;;6.20;1.63;;;3.70;99.90;;;;;;5094793;28;20056;-51
2023/04/26 03:38:08;;;;;;;7.57;1.77;;;;;;;;;;5096594;27;20063;-52
2023/04/26 03:40:34;;;;;;;9.43;1.75;;;;;;;;;;5095251;27;20055;-52
2023/04/26 03:43:00;;;;;;;7.55;1.85;;;;;;;;;;5094771;27;20114;-51
2023/04/26 03:45:26;;;;;;;7.22;1.85;;;;;;;;;;5094486;27;20040;-50
2023/04/26 03:47:52;;;;;;;7.90;1.92;;;3.70;99.90;;;;;;5095743;27;20363;-48
2023/04/26 03:50:18;;;;;;;7.45;1.70;;;;;;;;;;5095673;27;20770;-50
2023/04/26 03:52:44;;;;;;;14.27;3.75;;;;;;;;;;5094815;27;20082;-48
2023/04/26 03:55:11;;;;;;;8.80;2.28;;;;;;;;;;5094942;27;20047;-53
2023/04/26 03:57:37;;;;;;;6.80;1.92;;;;;;;;;;5095814;27;20100;-48
2023/04/26 04:00:10;;;;;;;11.43;3.10;;;3.70;99.90;;;;;;5095310;27;20047;-52
2023/04/26 04:02:36;;;;;;;11.93;1.92;;;;;;;;;;5095484;27;20667;-51
2023/04/26 04:05:03;;;;;;;6.63;1.85;;;;;;;;;;5094797;27;20040;-51
2023/04/26 04:07:31;;;;;;;6.68;1.58;;;;;;;;;;5095897;27;20047;-48
2023/04/26 04:09:58;;;;;;;4.78;1.73;;;;;;;;;;5094316;27;20571;-53
2023/04/26 04:12:24;;;;;;;12.20;1.83;;;;;;;;;;5094624;27;20781;-49
2023/04/26 04:14:51;;;;;;;7.57;2.15;;;;;;;;;;5094075;28;20044;-50
2023/04/26 04:17:18;;;;;;;7.68;1.92;;;;;;;;;;5093892;27;20508;-47
2023/04/26 04:19:44;;;;;;;5.60;1.63;;;;;;;;;;5058846;27;20492;-50
2023/04/26 04:22:10;;;;;;;9.68;2.10;;;3.50;99.90;;;;;;5093674;27;20416;-51
2023/04/26 04:24:36;;;;;;;9.90;1.85;;;;;;;;;;5094964;27;20551;-47
2023/04/26 04:27:03;;;;;;;11.50;2.10;;;;;;;;;;5093680;27;20478;-50
2023/04/26 04:29:29;;;;;;;6.75;1.58;;;;;;;;;;5093391;27;20036;-49
2023/04/26 04:31:56;;;;;;;7.35;1.73;;;;;;;;;;5093643;27;20089;-51
2023/04/26 04:34:22;;;;;;;5.18;1.35;;;;;;;;;;5093006;27;20044;-49
2023/04/26 04:36:49;;;;;;;8.32;1.75;;;;;;;;;;5094387;27;20055;-47
2023/04/26 04:39:16;;;;;;;8.85;2.67;;;;;;;;;;5093242;27;20043;-47
2023/04/26 04:41:48;;;;;;;5.40;1.70;;;3.40;99.90;;;;;;5092707;27;20078;-48
2023/04/26 04:44:15;;;;;;;9.13;1.52;;;;;;;;;;5094216;27;20164;-48
2023/04/26 04:46:42;;;;;;;5.80;2.00;;;3.10;99.90;;;;;;5093610;27;20058;-48
2023/04/26 04:49:08;;;;;;;7.30;1.77;;;;;;;;;;5093251;27;20141;-47
2023/04/26 04:51:35;;;;;;;9.05;1.80;;;;;;;;;;5093655;27;20132;-49
2023/04/26 04:54:20;;;;;;;6.88;1.70;;;3.20;99.90;;;;;;5093839;27;20043;-49
2023/04/26 04:56:47;;;;;;;7.13;2.40;;;;;;;;;;5094262;27;20279;-51
2023/04/26 04:59:13;;;;;;;7.05;1.80;;;;;;;;;;5094583;27;20040;-49
2023/04/26 05:01:39;;;;;;;10.07;1.60;;;;;;;;;;5094301;27;20075;-48
2023/04/26 05:04:06;;;;;;;8.43;1.88;;;;;;;;;;5093137;27;20054;-47
2023/04/26 05:06:32;;;;;;;8.05;2.20;;;;;;;;;;5077104;27;20051;-50
2023/04/26 05:08:58;;;;;;;10.23;2.00;;;;;;;;;;5094785;28;20070;-52
2023/04/26 05:11:25;;;;;;;7.43;2.10;;;;;;;;;;5092964;27;20138;-50
2023/04/26 05:13:51;;;;;;;10.50;1.90;;;;;;;;;;5091664;27;20392;-51
2023/04/26 05:16:17;;;;;;;11.48;2.33;;;;;;;;;;5091014;27;20477;-51
2023/04/26 05:18:43;;;;;;;6.68;1.70;;;;;;;;;;5055366;28;20046;-51
2023/04/26 05:21:10;;;;;;;10.98;2.03;;;;;;;;;;5091711;27;20049;-50
2023/04/26 05:23:36;;;;;;;6.15;2.13;;;;;;;;;;5092114;28;20071;-52
2023/04/26 05:26:05;;;;;;;8.00;2.20;;;5.40;99.90;;;;;;5092500;27;20047;-50
2023/04/26 05:28:31;;;;;;;5.88;1.63;;;5.70;99.90;;;;;;5092813;27;20052;-52
2023/04/26 05:30:58;;;;;;;7.03;2.03;;;5.80;99.90;;;;;;5093309;27;20063;-52
2023/04/26 05:33:24;;;;;;;8.10;1.75;;;5.80;99.90;;;;;;5073787;28;20315;-52
2023/04/26 05:35:51;;;;;;;5.80;1.80;;;;;;;;;;5092407;27;20079;-52
2023/04/26 05:38:17;;;;;;;5.32;1.77;;;5.60;99.90;;;;;;5094787;28;20059;-52
2023/04/26 05:40:43;;;;;;;6.93;2.00;;;;;;;;;;5093246;27;20055;-50
2023/04/26 05:43:09;;;;;;;6.38;1.90;;;;;;;;;;5092430;28;20515;-51
2023/04/26 05:45:35;;;;;;;8.13;2.17;;;5.40;99.90;;;;;;5093014;28;20099;-51
2023/04/26 05:48:01;;;;;;;10.05;2.20;;;;;;;;;;5093855;28;20495;-51
2023/04/26 05:50:27;;;;;;;7.35;2.08;;;;;;;;;;5093267;27;20423;-49
2023/04/26 05:52:53;;;;;;;6.78;1.83;;;5.20;99.90;;;;;;5092850;27;20063;-52
2023/04/26 05:55:20;;;;;;;7.97;2.20;;;5.10;99.90;;;;;;5073243;28;20654;-52
2023/04/26 05:57:45;;;;;;;7.97;2.10;;;5.10;99.90;;;;;;5074721;27;20070;-51
2023/04/26 06:00:12;;;;;;;12.25;2.90;;;5.20;99.90;;;;;;5092898;28;20196;-49
2023/04/26 06:02:38;;;;;;;10.13;2.58;;;5.00;99.90;;;;;;5093019;28;20038;-50
2023/04/26 06:05:05;;;;;;;7.28;2.47;;;;;;;;;;5093495;28;20078;-49
2023/04/26 06:07:31;;;;;;;9.32;2.80;;;;;;;;;;5095806;28;20430;-52
2023/04/26 06:09:59;;;;;;;8.20;2.45;;;5.30;99.90;;;;;;5093825;28;20080;-48
2023/04/26 06:12:26;;;;;;;11.15;2.50;;;;;;;;;;5093649;28;20077;-51
2023/04/26 06:14:51;;;;;;;6.47;2.30;;;5.60;99.90;;;;;;5094455;28;20315;-53
2023/04/26 06:17:17;;;;;;;9.48;2.50;;;5.80;99.90;;;;;;5093628;28;20238;-52
2023/04/26 06:19:43;;;;;;;10.05;4.00;;;6.00;99.90;;;;;;5093597;28;20043;-51
2023/04/26 06:22:09;;;;;;;9.55;2.70;;;6.30;99.90;;;;;;5094124;28;20511;-51
2023/04/26 06:24:34;;;;;;;11.10;2.72;;;6.20;99.90;;;;;;5092993;28;20495;-49
2023/04/26 06:27:00;;;;;;;6.18;2.20;;;6.40;99.90;;;;;;5092783;28;20088;-52
2023/04/26 06:29:26;;;;;;;7.63;2.47;;;6.70;99.90;;;;;;5093147;28;20051;-48
2023/04/26 06:31:52;;;;;;;5.93;2.42;;;9.20;99.90;;;;;;5093925;28;20677;-49
2023/04/26 06:34:18;;;;;;;7.88;2.00;;;8.50;99.90;;;;;;5092215;28;20043;-47
2023/04/26 06:36:44;;;;;;;7.63;2.08;;;9.20;99.90;;;;;;5094027;27;20062;-53
2023/04/26 06:39:10;;;;;;;10.55;2.08;;;9.90;99.90;;;;;;5096741;28;20066;-49
2023/04/26 06:41:36;;;;;;;10.63;2.08;;;10.20;99.90;;;;;;5096518;27;20805;-48
2023/04/26 06:44:02;;;;;;;7.10;2.30;;;10.30;99.90;;;;;;5096250;27;20991;-53
2023/04/26 06:46:28;;;;;;;12.55;3.33;;;10.40;99.90;;;;;;5096532;27;20100;-50
2023/04/26 06:48:54;;;;;;;8.40;2.33;;;10.30;99.90;;;;;;5096293;27;20412;-50
2023/04/26 06:51:20;;;;;;;9.25;1.83;;;11.40;99.90;;;;;;5096536;27;20519;-51
2023/04/26 06:53:47;;;;;;;8.38;1.67;;;12.40;99.90;;;;;;5096554;27;20047;-48
2023/04/26 06:56:12;;;;;;;6.65;1.70;;;13.80;99.90;;;;;;5095747;27;20055;-48
2023/04/26 06:58:38;;;;;;;6.78;2.30;;;14.40;99.90;;;;;;5097829;27;20044;-50
2023/04/26 07:01:05;;;;;;;9.63;1.77;;;15.00;99.90;;;;;;5097030;27;20048;-48
2023/04/26 07:03:31;;;;;;;5.43;1.30;;;15.30;99.90;;;;;;5096497;27;20078;-50
2023/04/26 07:05:57;;;;;;;3.70;1.23;;;15.60;99.90;;;;;;5095594;27;20508;-52
2023/04/26 07:08:22;;;;;;;6.03;1.70;;;15.50;99.90;;;;;;5098274;27;20840;-50
2023/04/26 07:10:48;;;;;;;7.90;1.75;;;15.60;99.90;;;;;;5096356;27;20123;-49
2023/04/26 07:13:14;;;;;;;6.68;1.55;;;15.10;99.90;;;;;;5095196;27;20043;-52
2023/04/26 07:15:40;;;;;;;9.50;1.70;;;14.60;99.90;;;;;;5095212;27;20096;-47
2023/04/26 07:18:07;;;;;;;6.15;1.80;;;13.50;99.90;;;;;;5095915;28;20040;-52
2023/04/26 07:20:33;;;;;;;9.15;1.50;;;13.00;99.90;;;;;;5095555;27;20043;-49
2023/04/26 07:22:58;;;;;;;7.63;1.35;;;13.00;99.90;;;;;;5077759;28;20043;-48
2023/04/26 07:25:24;;;;;;;7.68;1.65;;;12.70;99.90;;;;;;5095621;27;20055;-49
2023/04/26 07:27:50;;;;;;;5.70;1.20;;;13.10;99.90;;;;;;5098101;27;20515;-48
2023/04/26 07:30:16;;;;;;;5.80;1.45;;;13.80;99.90;;;;;;5094978;27;20043;-48
2023/04/26 07:32:42;;;;;;;7.22;1.50;;;14.90;99.90;;;;;;5096204;27;20086;-48
2023/04/26 07:35:14;;;;;;;9.88;1.50;;;15.70;99.90;;;;;;5095990;27;20044;-49
2023/04/26 07:37:41;;;;;;;4.38;1.35;;;16.10;99.90;;;;;;5097079;27;20056;-47
2023/04/26 07:40:09;;;;;;;4.78;1.40;;;15.80;99.90;;;;;;5095889;27;20110;-52
2023/04/26 07:42:34;;;;;;;6.47;1.27;;;15.50;99.90;;;;;;5097255;27;20055;-50
2023/04/26 07:45:00;;;;;;;7.35;1.63;;;15.30;99.90;;;;;;5077891;27;20100;-48
2023/04/26 07:47:26;;;;;;;4.90;1.20;;;14.90;99.90;;;;;;5094989;27;20533;-47
2023/04/26 07:49:53;;;;;;;5.78;1.50;;;14.30;99.90;;;;;;5095297;27;20052;-48
2023/04/26 07:52:19;;;;;;;8.68;1.60;;;13.80;99.90;;;;;;5097748;27;20047;-47
2023/04/26 07:54:45;;;;;;;8.30;2.60;;;13.60;99.90;;;;;;5095602;27;20051;-52
2023/04/26 07:57:11;;;;;;;10.30;1.77;;;13.50;99.90;;;;;;5095372;27;20120;-50
2023/04/26 07:59:37;;;;;;;6.85;1.40;;;13.20;99.90;;;;;;5095000;27;20579;-52
2023/04/26 08:02:03;;;;;;;6.28;1.20;;;13.20;99.90;;;;;;5096108;28;20126;-49
2023/04/26 08:04:33;;;;;;;10.02;1.70;;;13.00;99.90;;;;;;5076262;28;20035;-52
2023/04/26 08:07:00;;;;;;;6.72;1.90;;;12.60;99.90;;;;;;5095651;28;20039;-50
2023/04/26 08:09:29;;;;;;;5.35;1.35;;;12.10;99.90;;;;;;5096271;27;20043;-51
2023/04/26 08:11:56;;;;;;;11.30;2.47;;;11.80;99.90;;;;;;5095025;28;20070;-52
2023/04/26 08:14:21;;;;;;;5.22;1.67;;;11.70;99.90;;;;;;5094220;27;20264;-52
2023/04/26 08:16:47;;;;;;;6.50;1.60;;;11.60;99.90;;;;;;5095964;28;20415;-51
2023/04/26 08:19:13;;;;;;;11.98;1.95;;;11.60;99.90;;;;;;5093809;27;20104;-51
2023/04/26 08:21:39;;;;;;;7.10;2.08;;;11.80;99.90;;;;;;5094521;27;20053;-52
2023/04/26 08:24:05;;;;;;;8.30;1.63;;;12.20;99.90;;;;;;5077172;28;21097;-51
2023/04/26 08:26:30;;;;;;;5.88;1.85;;;13.90;99.90;;;;;;5077199;27;20135;-50
2023/04/26 08:28:56;;;;;;;6.75;2.05;;;11.90;99.90;;;;;;5094495;27;20122;-51
2023/04/26 08:31:22;;;;;;;6.68;1.50;;;11.40;99.90;;;;;;5093658;27;20276;-51
2023/04/26 08:33:48;;;;;;;7.50;2.10;;;11.00;99.90;;;;;;5095569;27;20040;-47
2023/04/26 08:36:14;;;;;;;8.32;1.60;;;10.50;99.90;;;;;;5094216;27;20082;-49
2023/04/26 08:38:39;;;;;;;6.97;1.83;;;9.90;99.90;;;;;;5077859;28;20044;-50
2023/04/26 08:41:07;;;;;;;5.80;1.30;;;9.80;99.90;;;;;;5094863;27;20120;-49
2023/04/26 08:43:35;;;;;;;5.72;1.70;;;9.30;99.90;;;;;;5094353;28;20054;-48
2023/04/26 08:46:05;;;;;;;8.30;1.50;;;9.30;99.90;;;;;;5095046;27;20036;-51
2023/04/26 08:48:33;;;;;;;9.55;1.52;;;9.10;99.90;;;;;;5093892;27;20148;-52
2023/04/26 08:51:00;;;;;;;5.78;1.65;;;9.00;99.90;;;;;;5094684;27;20039;-49
2023/04/26 08:53:26;;;;;;;10.55;2.25;;;8.90;99.90;;;;;;5094739;27;20047;-48
2023/04/26 08:55:53;;;;;;;7.72;1.60;;;9.20;99.90;;;;;;5094133;27;20481;-50
2023/04/26 08:58:19;;;;;;;10.10;1.55;;;9.40;99.90;;;;;;5095595;27;20051;-52
2023/04/26 09:00:45;;;;;;;9.98;2.00;;;9.40;99.90;;;;;;5092854;28;20309;-51
2023/04/26 09:03:11;;;;;;;9.20;1.50;;;9.30;99.90;;;;;;5095886;27;20043;-51
2023/04/26 09:05:39;;;;;;;7.95;1.98;;;9.50;99.90;;;;;;5093180;28;20454;-50
2023/04/26 09:08:06;;;;;;;8.10;1.85;;;9.30;99.90;;;;;;5095861;27;20043;-49
2023/04/26 09:10:32;;;;;;;12.82;2.47;;;9.50;99.90;;;;;;5093729;27;20133;-47
2023/04/26 09:12:58;;;;;;;9.52;2.00;;;9.60;99.90;;;;;;5094755;27;20055;-49
2023/04/26 09:15:25;;;;;;;11.70;2.20;;;9.40;99.90;;;;;;5093338;27;20051;-51
2023/04/26 09:17:52;;;;;;;9.38;1.90;;;9.60;99.90;;;;;;5094285;27;20048;-50
2023/04/26 09:20:30;;;;;;;9.13;2.60;;;9.80;99.90;;;;;;5093085;27;20127;-48
2023/04/26 09:23:07;;;;;;;8.38;2.05;;;9.90;99.90;;;;;;5093143;27;20047;-49
2023/04/26 09:25:34;;;;;;;6.68;2.30;;;9.80;99.90;;;;;;5092681;27;20086;-50
2023/04/26 09:28:00;;;;;;;8.15;1.80;;;9.70;99.90;;;;;;5074734;28;20380;-48
2023/04/26 09:30:27;;;;;;;7.30;2.13;;;9.70;99.90;;;;;;5094515;28;20043;-50
2023/04/26 09:33:05;;;;;;;6.93;2.13;;;9.70;99.90;;;;;;5092904;27;20039;-48
2023/04/26 09:35:34;;;;;;;10.20;2.22;;;9.70;99.90;;;;;;5092332;28;20055;-50
2023/04/26 09:38:05;;;;;;;10.20;2.38;;;9.50;99.90;;;;;;5094387;28;20493;-48
2023/04/26 09:40:35;;;;;;;8.68;2.00;;;9.70;99.90;;;;;;5092845;27;20140;-50
2023/04/26 09:43:23;;;;;;;9.23;1.90;;;9.80;99.90;;;;;;5093380;27;20075;-49
2023/04/26 09:45:58;;;;;;;9.20;1.75;;;9.90;99.90;;;;;;5092640;27;20423;-51
2023/04/26 09:48:29;;;;;;;9.40;1.73;;;10.20;99.90;;;;;;5074742;28;20071;-48
2023/04/26 09:50:57;;;;;;;6.20;1.83;;;10.90;99.90;;;;;;5092835;27;20043;-48
2023/04/26 09:53:30;;;;;;;7.82;1.73;;;10.40;99.90;;;;;;5092867;28;20050;-48
2023/04/26 09:56:04;;;;;;;7.35;1.92;;;10.50;99.90;;;;;;5092029;27;20039;-47
2023/04/26 09:58:30;;;;;;;6.25;1.52;;;10.40;99.90;;;;;;5092135;28;20040;-49
2023/04/26 10:00:57;;;;;;;10.15;2.97;;;10.70;99.90;;;;;;5092011;27;20062;-48
2023/04/26 10:03:24;;;;;;;8.32;2.10;;;10.70;99.90;;;;;;5094283;28;20096;-48
2023/04/26 10:05:50;;;;;;;10.45;2.38;;;10.60;99.90;;;;;;5093447;27;20031;-47
2023/04/26 10:08:15;;;;;;;7.78;1.58;;;10.70;99.90;;;;;;5095186;27;20361;-46
2023/04/26 10:10:42;;;;;;;6.53;1.55;;;10.60;99.90;;;;;;5073598;28;20146;-50
2023/04/26 10:13:10;;;;;;;11.30;2.40;;;10.50;99.90;;;;;;5094366;28;20059;-51
2023/04/26 10:15:39;;;;;;;8.82;1.85;;;10.30;99.90;;;;;;5092623;28;20512;-48
2023/04/26 10:18:04;;;;;;;5.85;1.60;;;10.10;99.90;;;;;;5093382;28;20050;-48
2023/04/26 10:20:30;;;;;;;8.38;1.60;;;10.30;99.90;;;;;;5092591;28;20408;-49
2023/04/26 10:23:01;;;;;;;12.40;2.00;;;10.30;99.90;;;;;;5094153;28;20144;-46
2023/04/26 10:25:38;;;;;;;8.68;1.75;;;10.40;99.90;;;;;;5092789;28;20051;-50
2023/04/26 10:28:05;;;;;;;7.25;1.75;;;10.80;99.90;;;;;;5092829;28;20043;-48
2023/04/26 10:30:31;;;;;;;7.47;2.28;;;10.70;99.90;;;;;;5093403;28;20381;-52
2023/04/26 10:32:57;;;;;;;8.48;1.70;;;10.70;99.90;;;;;;5094385;28;20046;-48
2023/04/26 10:35:25;;;;;;;6.63;1.73;;;10.60;99.90;;;;;;5092232;28;20062;-48
2023/04/26 10:38:05;;;;;;;6.50;2.13;;;10.50;99.90;;;;;;5092892;28;20051;-46
2023/04/26 10:40:38;;;;;;;6.00;1.60;;;10.10;99.90;;;;;;5094243;28;20040;-47
2023/04/26 10:43:10;;;;;;;10.02;1.75;;;11.60;99.90;;;;;;5092401;28;21114;-50
2023/04/26 10:45:37;;;;;;;10.68;1.75;;;9.20;99.90;;;;;;5092095;28;20059;-51
2023/04/26 10:48:29;;;;;;;7.40;1.48;;;9.10;99.90;;;;;;5093096;28;20130;-49
2023/04/26 10:51:03;;;;;;;8.32;1.70;;;8.90;99.90;;;;;;5075691;28;20048;-52
2023/04/26 10:53:45;;;;;;;7.93;1.58;;;8.90;99.90;;;;;;5073879;28;20055;-51
2023/04/26 10:56:23;;;;;;;7.83;1.70;;;8.80;99.90;;;;;;5074234;28;20105;-50
2023/04/26 10:59:05;;;;;;;7.15;1.58;;;8.80;99.90;;;;;;5092277;28;20108;-52
2023/04/26 11:01:31;;;;;;;6.07;1.60;;;8.80;99.90;;;;;;5091960;28;20039;-51
2023/04/26 11:03:57;;;;;;;7.95;2.58;;;8.80;99.90;;;;;;5091377;28;20035;-51
2023/04/26 11:06:24;;;;;;;5.15;1.50;;;8.80;99.90;;;;;;5093269;28;20405;-50
2023/04/26 11:08:50;;;;;;;10.30;2.08;;;8.70;99.90;;;;;;5074782;28;20052;-51
2023/04/26 11:11:18;;;;;;;7.45;1.60;;;8.80;99.90;;;;;;5091099;28;20047;-53
2023/04/26 11:13:45;;;;;;;7.03;1.50;;;8.90;99.90;;;;;;5073031;28;20044;-51
2023/04/26 11:16:15;;;;;;;6.05;1.45;;;9.00;99.90;;;;;;5092022;28;20052;-49
2023/04/26 11:18:46;;;;;;;7.97;1.98;;;9.00;99.90;;;;;;5072023;28;20050;-52
2023/04/26 11:21:16;;;;;;;7.63;1.40;;;9.00;99.90;;;;;;5073685;28;20104;-52
2023/04/26 11:23:42;;;;;;;7.18;1.40;;;8.90;99.90;;;;;;5094359;27;20043;-51
2023/04/26 11:26:08;;;;;;;4.68;1.40;;;9.60;99.90;;;;;;5097102;27;20108;-51
2023/04/26 11:28:38;;;;;;;6.07;1.23;;;9.10;99.90;;;;;;5095194;27;20039;-51
2023/04/26 11:31:05;;;;;;;5.55;1.50;;;9.10;99.90;;;;;;5076828;28;20953;-48
2023/04/26 11:33:32;;;;;;;4.22;1.25;;;9.30;99.90;;;;;;5096340;27;20122;-51
2023/04/26 11:35:58;;;;;;;7.20;1.48;;;9.40;99.90;;;;;;5094781;27;20036;-52
2023/04/26 11:38:25;;;;;;;6.10;1.25;;;9.70;99.90;;;;;;5096588;27;20667;-52
2023/04/26 11:40:59;;;;;;;4.07;1.30;;;10.10;99.90;;;;;;5096778;27;20043;-50
2023/04/26 11:43:31;;;;;;;5.75;1.40;;;10.10;99.90;;;;;;5096072;28;20460;-52
2023/04/26 11:46:00;;;;;;;6.47;1.20;;;10.10;99.90;;;;;;5097003;27;20119;-51
2023/04/26 11:48:27;;;;;;;5.78;1.27;;;10.10;99.90;;;;;;5078435;27;20129;-50
2023/04/26 11:50:55;;;;;;;6.88;1.27;;;10.30;99.90;;;;;;5095767;27;20350;-51
2023/04/26 11:53:21;;;;;;;6.10;1.50;;;10.10;99.90;;;;;;5096230;27;20066;-52
2023/04/26 11:55:47;;;;;;;4.18;1.20;;;10.00;99.90;;;;;;5095726;28;20507;-48
2023/04/26 11:58:14;;;;;;;9.55;1.30;;;10.10;99.90;;;;;;5096781;27;20218;-51
2023/04/26 12:01:00;;;;;;;7.60;1.10;;;10.10;99.90;;;;;;5095242;28;20059;-51
2023/04/26 12:03:31;;;;;;;13.27;1.52;;;9.80;99.90;;;;;;5095084;27;20039;-51
2023/04/26 12:05:56;;;;;;;6.78;1.40;;;9.70;99.90;;;;;;5093827;27;20059;-52
2023/04/26 12:08:26;;;;;;;7.30;1.35;;;9.70;99.90;;;;;;5094948;27;20131;-51
2023/04/26 12:10:52;;;;;;;5.80;1.30;;;9.60;99.90;;;;;;5077318;28;20047;-51
2023/04/26 12:13:19;;;;;;;7.80;1.65;;;9.50;99.90;;;;;;5095619;27;20130;-50
2023/04/26 12:15:46;;;;;;;8.13;1.40;;;9.40;99.90;;;;;;5075937;28;20043;-51
2023/04/26 12:18:12;;;;;;;10.63;2.38;;;9.40;99.90;;;;;;5059174;28;20042;-46
2023/04/26 12:20:40;;;;;;;6.80;1.48;;;9.10;99.90;;;;;;5094933;27;20040;-50
2023/04/26 12:23:12;;;;;;;9.18;1.58;;;9.20;99.90;;;;;;5095788;27;20146;-49
2023/04/26 12:25:39;;;;;;;7.13;1.63;;;9.50;99.90;;;;;;5094110;27;20139;-47
2023/04/26 12:28:11;;;;;;;8.65;1.42;;;8.80;99.90;;;;;;5093575;27;20039;-49
2023/04/26 12:30:38;;;;;;;5.90;1.48;;;8.90;99.90;;;;;;5093902;28;20051;-46
2023/04/26 12:33:05;;;;;;;3.35;1.13;;;10.60;99.90;;;;;;5094321;27;20516;-50
2023/04/26 12:35:32;;;;;;;9.25;1.30;;;8.90;99.90;;;;;;5093150;27;20138;-47
2023/04/26 12:38:00;;;;;;;6.65;1.40;;;9.20;99.90;;;;;;5094495;27;21753;-48
2023/04/26 12:40:27;;;;;;;8.93;1.45;;;9.30;99.90;;;;;;5097050;27;20307;-49
2023/04/26 12:42:54;;;;;;;7.35;1.10;;;9.50;99.90;;;;;;5075356;28;20051;-47
2023/04/26 12:45:21;;;;;;;7.43;1.70;;;9.30;99.90;;;;;;5094493;27;20051;-48
2023/04/26 12:47:48;;;;;;;6.75;1.73;;;9.60;99.90;;;;;;5095190;27;20056;-46
2023/04/26 12:50:14;;;;;;;7.40;1.60;;;9.40;99.90;;;;;;5094395;27;20453;-47
2023/04/26 12:52:45;;;;;;;5.93;1.38;;;9.70;99.90;;;;;;5095513;27;20130;-47
2023/04/26 12:55:12;;;;;;;8.15;1.42;;;9.50;99.90;;;;;;5096205;27;20054;-46
2023/04/26 12:57:39;;;;;;;4.93;1.63;;;9.60;99.90;;;;;;5094424;28;20104;-46
2023/04/26 13:00:08;;;;;;;8.30;1.45;;;9.90;99.90;;;;;;5094449;27;20381;-47
2023/04/26 13:02:34;;;;;;;4.38;1.40;;;9.90;99.90;;;;;;5093945;27;20054;-48
2023/04/26 13:05:03;;;;;;;7.97;1.65;;;9.80;99.90;;;;;;5095322;27;20120;-50
2023/04/26 13:07:30;;;;;;;6.15;1.55;;;10.00;99.90;;;;;;5094756;27;20747;-47
2023/04/26 13:09:56;;;;;;;5.95;1.77;;;10.00;99.90;;;;;;5096160;27;20047;-49
2023/04/26 13:12:22;;;;;;;4.97;1.58;;;10.10;99.90;;;;;;5094560;27;20323;-52
2023/04/26 13:14:48;;;;;;;7.00;1.70;;;10.10;99.90;;;;;;5094123;27;20090;-50
2023/04/26 13:17:14;;;;;;;5.57;1.38;;;10.00;99.90;;;;;;5075724;27;20031;-48
2023/04/26 13:19:40;;;;;;;9.00;1.38;;;10.20;99.90;;;;;;5094848;27;20200;-48
2023/04/26 13:22:07;;;;;;;8.85;1.65;;;10.00;99.90;;;;;;5093764;27;20038;-56
2023/04/26 13:24:34;;;;;;;6.07;1.50;;;10.50;99.90;;;;;;5093605;28;20449;-49